KACQ

Waseca Municipal Airport

Waseca, Minnesota, USA
METAR KACQ 222015Z AUTO 36005KT 10SM CLR 25/17 A3007 RMK AO2
Observed Flight Rules
Jul-22 @ 20:15 UTC (7 minutes ago) Visual Flight Rules
Wind Visibility Clouds
360° at 5 knots 10 miles
  • Clear skies
Temperatures Readings
Current 25°C / 77°F
Dewpoint 17°C / 63°F
Humidity 61%
Altimeter 30.07" Hg
Pressure 1018 hPa
Elevation 343
METAR KACQ 222015Z AUTO 36005KT 10SM CLR 25/17 A3007 RMK AO2
Observed Flight Rules
Jul-22 @ 20:15 UTC
(7 minutes ago)
VFR
Wind Visibility
360° at 5 knots 10 miles
Clouds
  • Clear skies
Temperature Dewpoint
25°C / 77°F 17°C / 63°F
Humidity Altimeter Pressure
61% 30.07" Hg 1018 hPa